sensor_id;sensor_type;location;lat;lon;timestamp;pressure;altitude;pressure_sealevel;temperature;humidity
31357;BME280;60001;48.404;11.738;2023-11-21T00:00:47;95786.63;;;8.14;81.72
31357;BME280;60001;48.404;11.738;2023-11-21T00:02:18;95787.91;;;8.12;81.66
31357;BME280;60001;48.404;11.738;2023-11-21T00:03:49;95785.53;;;8.10;81.97
31357;BME280;60001;48.404;11.738;2023-11-21T00:05:20;95778.38;;;8.06;82.00
31357;BME280;60001;48.404;11.738;2023-11-21T00:06:54;95778.53;;;7.94;82.79
31357;BME280;60001;48.404;11.738;2023-11-21T00:08:24;95773.09;;;8.06;82.19
31357;BME280;60001;48.404;11.738;2023-11-21T00:09:56;95769.16;;;8.03;82.53
31357;BME280;60001;48.404;11.738;2023-11-21T00:11:27;95769.66;;;8.00;82.45
31357;BME280;60001;48.404;11.738;2023-11-21T00:12:59;95751.66;;;7.87;82.81
31357;BME280;60001;48.404;11.738;2023-11-21T00:14:32;95767.25;;;7.98;82.68
31357;BME280;60001;48.404;11.738;2023-11-21T00:16:05;95767.25;;;7.98;82.57
31357;BME280;60001;48.404;11.738;2023-11-21T00:17:38;95759.81;;;7.90;82.69
31357;BME280;60001;48.404;11.738;2023-11-21T00:19:08;95759.44;;;8.04;82.48
31357;BME280;60001;48.404;11.738;2023-11-21T00:20:40;95765.72;;;8.03;82.05
31357;BME280;60001;48.404;11.738;2023-11-21T00:22:11;95769.69;;;8.05;81.96
31357;BME280;60001;48.404;11.738;2023-11-21T00:23:43;95749.91;;;7.97;82.23
31357;BME280;60001;48.404;11.738;2023-11-21T00:25:13;95761.66;;;7.90;82.42
31357;BME280;60001;48.404;11.738;2023-11-21T00:26:47;95766.78;;;8.02;81.86
31357;BME280;60001;48.404;11.738;2023-11-21T00:28:18;95761.50;;;8.02;82.00
31357;BME280;60001;48.404;11.738;2023-11-21T00:29:50;95764.63;;;7.98;82.13
31357;BME280;60001;48.404;11.738;2023-11-21T00:31:22;95760.94;;;8.00;81.77
31357;BME280;60001;48.404;11.738;2023-11-21T00:32:55;95764.16;;;8.02;81.88
31357;BME280;60001;48.404;11.738;2023-11-21T00:34:25;95748.81;;;7.93;81.92
31357;BME280;60001;48.404;11.738;2023-11-21T00:35:57;95759.69;;;8.02;82.18
31357;BME280;60001;48.404;11.738;2023-11-21T00:37:29;95762.56;;;8.01;82.48
31357;BME280;60001;48.404;11.738;2023-11-21T00:39:01;95759.94;;;8.01;82.36
31357;BME280;60001;48.404;11.738;2023-11-21T00:40:33;95755.25;;;8.08;81.75
31357;BME280;60001;48.404;11.738;2023-11-21T00:42:04;95761.31;;;8.08;82.00
31357;BME280;60001;48.404;11.738;2023-11-21T00:43:36;95761.78;;;8.00;82.29
31357;BME280;60001;48.404;11.738;2023-11-21T00:45:08;95766.84;;;8.12;82.00
31357;BME280;60001;48.404;11.738;2023-11-21T00:46:41;95759.22;;;8.10;82.50
31357;BME280;60001;48.404;11.738;2023-11-21T00:48:12;95767.81;;;8.01;82.41
31357;BME280;60001;48.404;11.738;2023-11-21T00:49:44;95759.16;;;8.05;82.72
31357;BME280;60001;48.404;11.738;2023-11-21T00:51:15;95764.47;;;8.10;82.38
31357;BME280;60001;48.404;11.738;2023-11-21T00:52:46;95753.19;;;8.10;82.52
31357;BME280;60001;48.404;11.738;2023-11-21T00:54:17;95765.59;;;8.14;82.37
31357;BME280;60001;48.404;11.738;2023-11-21T00:55:49;95755.25;;;8.08;82.36
31357;BME280;60001;48.404;11.738;2023-11-21T00:57:22;95765.59;;;8.14;82.03
31357;BME280;60001;48.404;11.738;2023-11-21T00:58:53;95765.38;;;8.21;82.08
31357;BME280;60001;48.404;11.738;2023-11-21T01:00:25;95764.34;;;8.22;82.48
31357;BME280;60001;48.404;11.738;2023-11-21T01:01:57;95758.22;;;8.16;82.67
31357;BME280;60001;48.404;11.738;2023-11-21T01:03:30;95755.59;;;8.16;82.17
31357;BME280;60001;48.404;11.738;2023-11-21T01:05:01;95754.31;;;8.19;81.62
31357;BME280;60001;48.404;11.738;2023-11-21T01:06:34;95751.97;;;8.22;81.39
31357;BME280;60001;48.404;11.738;2023-11-21T01:08:05;95749.88;;;8.24;81.64
31357;BME280;60001;48.404;11.738;2023-11-21T01:09:37;95744.88;;;8.23;81.98
31357;BME280;60001;48.404;11.738;2023-11-21T01:11:07;95740.16;;;8.25;81.82
31357;BME280;60001;48.404;11.738;2023-11-21T01:12:40;95740.94;;;8.25;81.59
31357;BME280;60001;48.404;11.738;2023-11-21T01:14:12;95739.56;;;8.18;82.27
31357;BME280;60001;48.404;11.738;2023-11-21T01:15:44;95742.78;;;8.25;82.97
31357;BME280;60001;48.404;11.738;2023-11-21T01:17:17;95736.47;;;8.26;82.63
31357;BME280;60001;48.404;11.738;2023-11-21T01:18:48;95743.31;;;8.27;82.57
31357;BME280;60001;48.404;11.738;2023-11-21T01:20:20;95746.53;;;8.29;82.72
31357;BME280;60001;48.404;11.738;2023-11-21T01:21:51;95750.41;;;8.27;82.99
31357;BME280;60001;48.404;11.738;2023-11-21T01:23:23;95753.91;;;8.32;83.27
31357;BME280;60001;48.404;11.738;2023-11-21T01:24:54;95742.84;;;8.30;83.04
31357;BME280;60001;48.404;11.738;2023-11-21T01:26:26;95753.34;;;8.30;83.38
31357;BME280;60001;48.404;11.738;2023-11-21T01:27:57;95753.34;;;8.30;82.88
31357;BME280;60001;48.404;11.738;2023-11-21T01:29:28;95751.78;;;8.29;82.94
31357;BME280;60001;48.404;11.738;2023-11-21T01:30:59;95749.59;;;8.21;83.60
31357;BME280;60001;48.404;11.738;2023-11-21T01:32:32;95744.28;;;8.16;84.35
31357;BME280;60001;48.404;11.738;2023-11-21T01:34:03;95746.06;;;8.10;85.12
31357;BME280;60001;48.404;11.738;2023-11-21T01:35:35;95751.47;;;8.25;84.90
31357;BME280;60001;48.404;11.738;2023-11-21T01:37:06;95751.19;;;8.22;84.75
31357;BME280;60001;48.404;11.738;2023-11-21T01:38:39;95745.38;;;8.20;84.42
31357;BME280;60001;48.404;11.738;2023-11-21T01:40:10;95756.19;;;8.23;84.64
31357;BME280;60001;48.404;11.738;2023-11-21T01:41:44;95751.19;;;8.22;85.19
31357;BME280;60001;48.404;11.738;2023-11-21T01:43:15;95753.34;;;8.30;84.80
31357;BME280;60001;48.404;11.738;2023-11-21T01:44:47;95749.69;;;8.31;85.12
31357;BME280;60001;48.404;11.738;2023-11-21T01:46:19;95748.97;;;8.36;85.30
31357;BME280;60001;48.404;11.738;2023-11-21T01:47:52;95750.81;;;8.35;85.53
31357;BME280;60001;48.404;11.738;2023-11-21T01:49:24;95753.34;;;8.30;86.01
31357;BME280;60001;48.404;11.738;2023-11-21T01:50:55;95747.66;;;8.38;85.83
31357;BME280;60001;48.404;11.738;2023-11-21T01:52:27;95739.25;;;8.41;85.26
31357;BME280;60001;48.404;11.738;2023-11-21T01:53:58;95744.81;;;8.45;85.57
31357;BME280;60001;48.404;11.738;2023-11-21T01:55:31;95746.34;;;8.36;85.22
31357;BME280;60001;48.404;11.738;2023-11-21T01:57:04;95747.16;;;8.41;84.80
31357;BME280;60001;48.404;11.738;2023-11-21T01:58:36;95746.66;;;8.44;84.75
31357;BME280;60001;48.404;11.738;2023-11-21T02:00:08;95750.09;;;8.45;84.91
31357;BME280;60001;48.404;11.738;2023-11-21T02:01:46;95751.53;;;8.31;85.52
31357;BME280;60001;48.404;11.738;2023-11-21T02:03:18;95744.25;;;8.38;85.35
31357;BME280;60001;48.404;11.738;2023-11-21T02:04:51;95747.94;;;8.37;85.68
31357;BME280;60001;48.404;11.738;2023-11-21T02:06:22;95743.44;;;8.37;85.71
31357;BME280;60001;48.404;11.738;2023-11-21T02:07:54;95750.56;;;8.37;84.88
31357;BME280;60001;48.404;11.738;2023-11-21T02:09:27;95752.56;;;8.30;85.06
31357;BME280;60001;48.404;11.738;2023-11-21T02:11:01;95747.06;;;8.31;85.63
31357;BME280;60001;48.404;11.738;2023-11-21T02:12:33;95735.69;;;8.25;85.86
31357;BME280;60001;48.404;11.738;2023-11-21T02:14:04;95740.81;;;8.37;85.94
31357;BME280;60001;48.404;11.738;2023-11-21T02:15:38;95745.03;;;8.38;86.06
31357;BME280;60001;48.404;11.738;2023-11-21T02:17:09;95746.13;;;8.42;85.46
31357;BME280;60001;48.404;11.738;2023-11-21T02:18:42;95743.25;;;8.44;85.87
31357;BME280;60001;48.404;11.738;2023-11-21T02:20:13;95739.88;;;8.48;85.52
31357;BME280;60001;48.404;11.738;2023-11-21T02:21:46;95742.81;;;8.57;85.41
31357;BME280;60001;48.404;11.738;2023-11-21T02:23:19;95741.25;;;8.56;85.17
31357;BME280;60001;48.404;11.738;2023-11-21T02:24:53;95742.19;;;8.45;85.48
31357;BME280;60001;48.404;11.738;2023-11-21T02:26:24;95742.16;;;8.40;85.67
31357;BME280;60001;48.404;11.738;2023-11-21T02:27:57;95735.09;;;8.45;85.12
31357;BME280;60001;48.404;11.738;2023-11-21T02:29:28;95733.00;;;8.47;85.20
31357;BME280;60001;48.404;11.738;2023-11-21T02:31:00;95736.97;;;8.50;85.30
31357;BME280;60001;48.404;11.738;2023-11-21T02:32:33;95728.03;;;8.51;85.30
31357;BME280;60001;48.404;11.738;2023-11-21T02:34:05;95730.94;;;8.55;85.49
31357;BME280;60001;48.404;11.738;2023-11-21T02:35:36;95719.31;;;8.45;84.87
31357;BME280;60001;48.404;11.738;2023-11-21T02:37:08;95732.28;;;8.57;84.83
31357;BME280;60001;48.404;11.738;2023-11-21T02:38:40;95733.56;;;8.55;84.85
31357;BME280;60001;48.404;11.738;2023-11-21T02:40:12;95733.84;;;8.53;84.37
31357;BME280;60001;48.404;11.738;2023-11-21T02:41:43;95727.88;;;8.63;84.00
31357;BME280;60001;48.404;11.738;2023-11-21T02:43:15;95726.47;;;8.50;83.98
31357;BME280;60001;48.404;11.738;2023-11-21T02:44:46;95725.66;;;8.49;83.91
31357;BME280;60001;48.404;11.738;2023-11-21T02:46:17;95725.41;;;8.51;84.14
31357;BME280;60001;48.404;11.738;2023-11-21T02:47:49;95724.09;;;8.48;84.02
31357;BME280;60001;48.404;11.738;2023-11-21T02:49:20;95714.53;;;8.37;84.27
31357;BME280;60001;48.404;11.738;2023-11-21T02:50:52;95731.63;;;8.40;83.91
31357;BME280;60001;48.404;11.738;2023-11-21T02:52:23;95730.84;;;8.39;84.12
31357;BME280;60001;48.404;11.738;2023-11-21T02:53:56;95733.50;;;8.44;83.99
31357;BME280;60001;48.404;11.738;2023-11-21T02:55:32;95734.09;;;8.51;84.54
31357;BME280;60001;48.404;11.738;2023-11-21T02:57:05;95736.09;;;8.39;83.46
31357;BME280;60001;48.404;11.738;2023-11-21T02:58:40;95735.44;;;8.27;84.57
31357;BME280;60001;48.404;11.738;2023-11-21T03:00:12;95733.91;;;8.31;84.98
31357;BME280;60001;48.404;11.738;2023-11-21T03:01:45;95738.19;;;8.37;84.71
31357;BME280;60001;48.404;11.738;2023-11-21T03:03:16;95735.84;;;8.41;84.19
31357;BME280;60001;48.404;11.738;2023-11-21T03:04:48;95735.81;;;8.36;84.55
31357;BME280;60001;48.404;11.738;2023-11-21T03:06:19;95743.72;;;8.36;85.17
31357;BME280;60001;48.404;11.738;2023-11-21T03:07:51;95732.97;;;8.42;84.50
31357;BME280;60001;48.404;11.738;2023-11-21T03:09:23;95731.97;;;8.48;84.38
31357;BME280;60001;48.404;11.738;2023-11-21T03:10:56;95740.34;;;8.45;84.32
31357;BME280;60001;48.404;11.738;2023-11-21T03:12:27;95738.47;;;8.41;84.63
31357;BME280;60001;48.404;11.738;2023-11-21T03:13:58;95738.66;;;8.34;85.02
31357;BME280;60001;48.404;11.738;2023-11-21T03:15:29;95737.84;;;8.34;85.37
31357;BME280;60001;48.404;11.738;2023-11-21T03:17:03;95740.28;;;8.35;85.38
31357;BME280;60001;48.404;11.738;2023-11-21T03:18:35;95734.00;;;8.41;84.95
31357;BME280;60001;48.404;11.738;2023-11-21T03:20:08;95726.31;;;8.35;84.37
31357;BME280;60001;48.404;11.738;2023-11-21T03:21:41;95733.78;;;8.43;84.54
31357;BME280;60001;48.404;11.738;2023-11-21T03:23:13;95735.59;;;8.42;84.84
31357;BME280;60001;48.404;11.738;2023-11-21T03:24:45;95728.50;;;8.43;85.33
31357;BME280;60001;48.404;11.738;2023-11-21T03:26:17;95725.34;;;8.46;85.19
31357;BME280;60001;48.404;11.738;2023-11-21T03:27:47;95730.09;;;8.44;84.81
31357;BME280;60001;48.404;11.738;2023-11-21T03:29:19;95730.63;;;8.46;84.91
31357;BME280;60001;48.404;11.738;2023-11-21T03:30:50;95731.94;;;8.43;85.02
31357;BME280;60001;48.404;11.738;2023-11-21T03:32:22;95734.88;;;8.52;84.94
31357;BME280;60001;48.404;11.738;2023-11-21T03:33:52;95727.00;;;8.52;85.11
31357;BME280;60001;48.404;11.738;2023-11-21T03:35:24;95733.03;;;8.52;85.03
31357;BME280;60001;48.404;11.738;2023-11-21T03:36:55;95729.09;;;8.50;85.54
31357;BME280;60001;48.404;11.738;2023-11-21T03:38:26;95725.56;;;8.39;85.78
31357;BME280;60001;48.404;11.738;2023-11-21T03:39:59;95713.25;;;8.45;85.59
31357;BME280;60001;48.404;11.738;2023-11-21T03:41:34;95730.41;;;8.52;85.54
31357;BME280;60001;48.404;11.738;2023-11-21T03:43:05;95727.78;;;8.52;85.31
31357;BME280;60001;48.404;11.738;2023-11-21T03:44:37;95720.94;;;8.51;85.51
31357;BME280;60001;48.404;11.738;2023-11-21T03:46:08;95717.22;;;8.47;85.47
31357;BME280;60001;48.404;11.738;2023-11-21T03:47:41;95732.50;;;8.50;85.39
31357;BME280;60001;48.404;11.738;2023-11-21T03:49:11;95721.78;;;8.57;85.31
31357;BME280;60001;48.404;11.738;2023-11-21T03:50:43;95715.16;;;8.55;85.16
31357;BME280;60001;48.404;11.738;2023-11-21T03:52:16;95710.66;;;8.50;85.27
31357;BME280;60001;48.404;11.738;2023-11-21T03:53:46;95715.66;;;8.51;85.23
31357;BME280;60001;48.404;11.738;2023-11-21T03:55:19;95682.34;;;8.30;85.28
31357;BME280;60001;48.404;11.738;2023-11-21T03:56:50;95718.78;;;8.43;84.91
31357;BME280;60001;48.404;11.738;2023-11-21T03:58:22;95711.38;;;8.40;85.21
31357;BME280;60001;48.404;11.738;2023-11-21T03:59:53;95711.41;;;8.45;85.14
31357;BME280;60001;48.404;11.738;2023-11-21T04:01:25;95715.66;;;8.51;84.91
31357;BME280;60001;48.404;11.738;2023-11-21T04:02:56;95715.09;;;8.44;85.05
31357;BME280;60001;48.404;11.738;2023-11-21T04:04:28;95710.38;;;8.46;84.89
31357;BME280;60001;48.404;11.738;2023-11-21T04:05:58;95695.31;;;8.37;84.93
31357;BME280;60001;48.404;11.738;2023-11-21T04:07:31;95717.47;;;8.46;84.80
31357;BME280;60001;48.404;11.738;2023-11-21T04:09:02;95719.31;;;8.45;84.77
31357;BME280;60001;48.404;11.738;2023-11-21T04:10:36;95716.69;;;8.45;84.70
31357;BME280;60001;48.404;11.738;2023-11-21T04:12:07;95710.31;;;8.36;84.60
31357;BME280;60001;48.404;11.738;2023-11-21T04:13:40;95709.25;;;8.37;84.91
31357;BME280;60001;48.404;11.738;2023-11-21T04:15:12;95710.69;;;8.23;84.94
31357;BME280;60001;48.404;11.738;2023-11-21T04:16:44;95709.97;;;8.33;84.91
31357;BME280;60001;48.404;11.738;2023-11-21T04:18:15;95708.38;;;8.32;85.10
31357;BME280;60001;48.404;11.738;2023-11-21T04:19:47;95710.31;;;8.36;84.49
31357;BME280;60001;48.404;11.738;2023-11-21T04:21:17;95713.22;;;8.40;84.24
31357;BME280;60001;48.404;11.738;2023-11-21T04:22:49;95708.22;;;8.38;84.41
31357;BME280;60001;48.404;11.738;2023-11-21T04:24:21;95719.44;;;8.34;84.32
31357;BME280;60001;48.404;11.738;2023-11-21T04:25:53;95708.31;;;8.21;84.42
31357;BME280;60001;48.404;11.738;2023-11-21T04:27:26;95717.00;;;8.22;84.45
31357;BME280;60001;48.404;11.738;2023-11-21T04:28:57;95723.06;;;8.22;84.87
31357;BME280;60001;48.404;11.738;2023-11-21T04:30:28;95724.53;;;8.13;85.08
31357;BME280;60001;48.404;11.738;2023-11-21T04:31:59;95717.34;;;8.04;85.70
31357;BME280;60001;48.404;11.738;2023-11-21T04:33:31;95720.84;;;8.09;85.72
31357;BME280;60001;48.404;11.738;2023-11-21T04:35:02;95722.66;;;8.09;86.10
31357;BME280;60001;48.404;11.738;2023-11-21T04:36:35;95720.31;;;8.12;85.64
31357;BME280;60001;48.404;11.738;2023-11-21T04:38:06;95715.38;;;8.16;85.54
31357;BME280;60001;48.404;11.738;2023-11-21T04:39:37;95729.09;;;8.23;85.44
31357;BME280;60001;48.404;11.738;2023-11-21T04:41:11;95727.53;;;8.22;85.39
31357;BME280;60001;48.404;11.738;2023-11-21T04:42:43;95720.69;;;8.21;85.62
31357;BME280;60001;48.404;11.738;2023-11-21T04:44:13;95725.63;;;8.17;85.28
31357;BME280;60001;48.404;11.738;2023-11-21T04:45:46;95715.84;;;8.13;85.94
31357;BME280;60001;48.404;11.738;2023-11-21T04:47:17;95722.47;;;8.20;85.57
31357;BME280;60001;48.404;11.738;2023-11-21T04:48:50;95729.09;;;8.23;84.83
31357;BME280;60001;48.404;11.738;2023-11-21T04:50:20;95711.91;;;8.10;85.30
31357;BME280;60001;48.404;11.738;2023-11-21T04:51:52;95729.59;;;8.20;84.79
31357;BME280;60001;48.404;11.738;2023-11-21T04:53:23;95740.88;;;8.15;84.72
31357;BME280;60001;48.404;11.738;2023-11-21T04:54:54;95735.31;;;8.12;84.95
31357;BME280;60001;48.404;11.738;2023-11-21T04:56:29;95734.22;;;8.08;85.14
31357;BME280;60001;48.404;11.738;2023-11-21T04:58:01;95735.50;;;8.05;85.23
31357;BME280;60001;48.404;11.738;2023-11-21T04:59:32;95725.94;;;7.94;85.94
31357;BME280;60001;48.404;11.738;2023-11-21T05:01:04;95734.97;;;8.03;85.45
31357;BME280;60001;48.404;11.738;2023-11-21T05:02:35;95741.81;;;8.04;85.46
31357;BME280;60001;48.404;11.738;2023-11-21T05:04:06;95739.97;;;8.05;85.38
31357;BME280;60001;48.404;11.738;2023-11-21T05:05:39;95738.09;;;8.00;85.43
31357;BME280;60001;48.404;11.738;2023-11-21T05:07:10;95738.09;;;8.00;85.51
31357;BME280;60001;48.404;11.738;2023-11-21T05:08:42;95733.06;;;7.98;85.11
31357;BME280;60001;48.404;11.738;2023-11-21T05:10:14;95721.94;;;7.86;84.97
31357;BME280;60001;48.404;11.738;2023-11-21T05:11:46;95724.75;;;7.80;85.59
31357;BME280;60001;48.404;11.738;2023-11-21T05:13:18;95741.72;;;7.94;85.65
31357;BME280;60001;48.404;11.738;2023-11-21T05:14:50;95745.94;;;7.95;85.61
31357;BME280;60001;48.404;11.738;2023-11-21T05:16:21;95740.88;;;7.88;86.06
31357;BME280;60001;48.404;11.738;2023-11-21T05:17:53;95739.03;;;7.89;85.45
31357;BME280;60001;48.404;11.738;2023-11-21T05:19:24;95742.97;;;7.86;85.84
31357;BME280;60001;48.404;11.738;2023-11-21T05:20:57;95733.44;;;7.80;86.39
31357;BME280;60001;48.404;11.738;2023-11-21T05:22:28;95738.13;;;7.78;86.38
31357;BME280;60001;48.404;11.738;2023-11-21T05:24:00;95740.41;;;7.69;86.86
31357;BME280;60001;48.404;11.738;2023-11-21T05:25:30;95743.63;;;7.77;86.95
31357;BME280;60001;48.404;11.738;2023-11-21T05:27:04;95742.97;;;7.86;86.18
31357;BME280;60001;48.404;11.738;2023-11-21T05:28:35;95736.34;;;7.84;86.04
31357;BME280;60001;48.404;11.738;2023-11-21T05:30:07;95742.38;;;7.79;86.23
31357;BME280;60001;48.404;11.738;2023-11-21T05:31:43;95741.34;;;7.85;85.75
31357;BME280;60001;48.404;11.738;2023-11-21T05:33:14;95740.53;;;7.80;85.71
31357;BME280;60001;48.404;11.738;2023-11-21T05:34:46;95742.59;;;7.78;85.92
31357;BME280;60001;48.404;11.738;2023-11-21T05:36:17;95738.38;;;7.77;85.67
31357;BME280;60001;48.404;11.738;2023-11-21T05:37:48;95736.75;;;7.70;85.75
31357;BME280;60001;48.404;11.738;2023-11-21T05:39:19;95743.91;;;7.75;85.48
31357;BME280;60001;48.404;11.738;2023-11-21T05:40:52;95734.06;;;7.65;84.96
31357;BME280;60001;48.404;11.738;2023-11-21T05:42:24;95740.66;;;7.68;85.20
31357;BME280;60001;48.404;11.738;2023-11-21T05:43:55;95746.44;;;7.65;85.39
31357;BME280;60001;48.404;11.738;2023-11-21T05:45:26;95747.69;;;7.62;85.00
31357;BME280;60001;48.404;11.738;2023-11-21T05:46:59;95744.22;;;7.57;84.89
31357;BME280;60001;48.404;11.738;2023-11-21T05:48:30;95747.59;;;7.52;85.30
31357;BME280;60001;48.404;11.738;2023-11-21T05:50:02;95754.09;;;7.50;85.51
31357;BME280;60001;48.404;11.738;2023-11-21T05:51:33;95753.88;;;7.51;86.04
31357;BME280;60001;48.404;11.738;2023-11-21T05:53:05;95738.78;;;7.41;85.15
31357;BME280;60001;48.404;11.738;2023-11-21T05:54:35;95728.16;;;7.31;84.78
31357;BME280;60001;48.404;11.738;2023-11-21T05:56:08;95747.44;;;7.42;84.95
31357;BME280;60001;48.404;11.738;2023-11-21T05:57:42;95747.72;;;7.40;84.76
31357;BME280;60001;48.404;11.738;2023-11-21T05:59:13;95747.88;;;7.34;84.76
31357;BME280;60001;48.404;11.738;2023-11-21T06:00:45;95743.13;;;7.31;84.56
31357;BME280;60001;48.404;11.738;2023-11-21T06:02:16;95738.53;;;7.21;85.08
31357;BME280;60001;48.404;11.738;2023-11-21T06:03:48;95756.75;;;7.28;84.90
31357;BME280;60001;48.404;11.738;2023-11-21T06:05:22;95753.84;;;7.29;84.48
31357;BME280;60001;48.404;11.738;2023-11-21T06:06:53;95749.09;;;7.26;84.46
31357;BME280;60001;48.404;11.738;2023-11-21T06:08:25;95752.44;;;7.22;84.37
31357;BME280;60001;48.404;11.738;2023-11-21T06:09:56;95751.38;;;7.18;84.54
31357;BME280;60001;48.404;11.738;2023-11-21T06:11:28;95756.28;;;7.14;84.55
31357;BME280;60001;48.404;11.738;2023-11-21T06:13:01;95742.81;;;7.05;84.76
31357;BME280;60001;48.404;11.738;2023-11-21T06:14:32;95745.19;;;7.07;84.75
31357;BME280;60001;48.404;11.738;2023-11-21T06:16:06;95758.06;;;7.08;84.94
31357;BME280;60001;48.404;11.738;2023-11-21T06:17:38;95761.72;;;7.07;84.69
31357;BME280;60001;48.404;11.738;2023-11-21T06:19:09;95760.13;;;7.06;84.74
31357;BME280;60001;48.404;11.738;2023-11-21T06:20:41;95762.47;;;7.03;85.03
31357;BME280;60001;48.404;11.738;2023-11-21T06:22:12;95760.72;;;6.92;84.73
31357;BME280;60001;48.404;11.738;2023-11-21T06:23:43;95768.44;;;6.98;84.97
31357;BME280;60001;48.404;11.738;2023-11-21T06:25:18;95772.09;;;6.97;85.01
31357;BME280;60001;48.404;11.738;2023-11-21T06:26:49;95779.19;;;6.97;84.76
31357;BME280;60001;48.404;11.738;2023-11-21T06:28:22;95786.47;;;6.95;85.21
31357;BME280;60001;48.404;11.738;2023-11-21T06:29:53;95774.00;;;6.85;85.37
31357;BME280;60001;48.404;11.738;2023-11-21T06:31:24;95778.22;;;6.86;85.69
31357;BME280;60001;48.404;11.738;2023-11-21T06:32:55;95774.34;;;6.89;85.40
31357;BME280;60001;48.404;11.738;2023-11-21T06:34:27;95781.63;;;6.86;85.36
31357;BME280;60001;48.404;11.738;2023-11-21T06:35:58;95785.06;;;6.87;85.23
31357;BME280;60001;48.404;11.738;2023-11-21T06:37:31;95778.94;;;6.81;85.70
31357;BME280;60001;48.404;11.738;2023-11-21T06:39:02;95783.19;;;6.82;85.60
31357;BME280;60001;48.404;11.738;2023-11-21T06:40:40;95769.34;;;6.70;85.51
31357;BME280;60001;48.404;11.738;2023-11-21T06:42:11;95785.78;;;6.82;85.78
31357;BME280;60001;48.404;11.738;2023-11-21T06:43:44;95790.25;;;6.82;85.41
31357;BME280;60001;48.404;11.738;2023-11-21T06:45:17;95783.56;;;6.74;85.67
31357;BME280;60001;48.404;11.738;2023-11-21T06:46:48;95787.31;;;6.78;85.60
31357;BME280;60001;48.404;11.738;2023-11-21T06:48:20;95798.19;;;6.70;86.18
31357;BME280;60001;48.404;11.738;2023-11-21T06:49:52;95785.31;;;6.69;86.01
31357;BME280;60001;48.404;11.738;2023-11-21T06:51:23;95797.53;;;6.80;85.81
31357;BME280;60001;48.404;11.738;2023-11-21T06:52:55;95805.91;;;6.77;86.21
31357;BME280;60001;48.404;11.738;2023-11-21T06:54:26;95792.47;;;6.73;86.03
31357;BME280;60001;48.404;11.738;2023-11-21T06:55:58;95804.72;;;6.84;85.97
31357;BME280;60001;48.404;11.738;2023-11-21T06:57:31;95803.91;;;6.84;85.91
31357;BME280;60001;48.404;11.738;2023-11-21T06:59:04;95806.53;;;6.84;86.12
31357;BME280;60001;48.404;11.738;2023-11-21T07:00:37;95813.88;;;6.82;87.05
31357;BME280;60001;48.404;11.738;2023-11-21T07:02:08;95811.72;;;6.79;87.39
31357;BME280;60001;48.404;11.738;2023-11-21T07:03:39;95814.97;;;6.86;86.89
31357;BME280;60001;48.404;11.738;2023-11-21T07:05:11;95816.88;;;6.91;86.75
31357;BME280;60001;48.404;11.738;2023-11-21T07:06:44;95824.22;;;6.89;87.02
31357;BME280;60001;48.404;11.738;2023-11-21T07:08:15;95819.50;;;6.91;86.92
31357;BME280;60001;48.404;11.738;2023-11-21T07:09:47;95818.31;;;6.98;86.67
31357;BME280;60001;48.404;11.738;2023-11-21T07:11:19;95816.22;;;7.00;86.84
31357;BME280;60001;48.404;11.738;2023-11-21T07:12:51;95825.69;;;7.01;87.17
31357;BME280;60001;48.404;11.738;2023-11-21T07:14:25;95827.50;;;7.01;87.61
31357;BME280;60001;48.404;11.738;2023-11-21T07:15:55;95821.38;;;7.12;87.46
31357;BME280;60001;48.404;11.738;2023-11-21T07:17:27;95826.63;;;7.12;87.51
31357;BME280;60001;48.404;11.738;2023-11-21T07:18:58;95826.16;;;7.15;88.03
31357;BME280;60001;48.404;11.738;2023-11-21T07:20:30;95821.22;;;7.19;87.90
31357;BME280;60001;48.404;11.738;2023-11-21T07:22:00;95831.56;;;7.25;87.83
31357;BME280;60001;48.404;11.738;2023-11-21T07:23:32;95836.31;;;7.28;88.02
31357;BME280;60001;48.404;11.738;2023-11-21T07:25:04;95833.69;;;7.28;88.06
31357;BME280;60001;48.404;11.738;2023-11-21T07:26:35;95834.81;;;7.32;88.21
31357;BME280;60001;48.404;11.738;2023-11-21T07:28:06;95833.25;;;7.36;88.05
31357;BME280;60001;48.404;11.738;2023-11-21T07:29:39;95830.09;;;7.34;88.29
31357;BME280;60001;48.404;11.738;2023-11-21T07:31:11;95837.81;;;7.41;87.94
31357;BME280;60001;48.404;11.738;2023-11-21T07:32:42;95839.09;;;7.38;88.22
31357;BME280;60001;48.404;11.738;2023-11-21T07:34:17;95832.31;;;7.42;88.47
31357;BME280;60001;48.404;11.738;2023-11-21T07:35:47;95824.75;;;7.46;88.07
31357;BME280;60001;48.404;11.738;2023-11-21T07:37:19;95832.44;;;7.53;88.88
31357;BME280;60001;48.404;11.738;2023-11-21T07:38:50;95808.44;;;7.44;88.69
31357;BME280;60001;48.404;11.738;2023-11-21T07:40:22;95838.38;;;7.65;88.46
31357;BME280;60001;48.404;11.738;2023-11-21T07:41:53;95837.34;;;7.66;88.71
31357;BME280;60001;48.404;11.738;2023-11-21T07:43:24;95835.81;;;7.70;88.58
31357;BME280;60001;48.404;11.738;2023-11-21T07:44:57;95832.75;;;7.78;88.36
31357;BME280;60001;48.404;11.738;2023-11-21T07:46:29;95793.09;;;7.58;88.49
31357;BME280;60001;48.404;11.738;2023-11-21T07:48:00;95842.09;;;7.69;88.03
31357;BME280;60001;48.404;11.738;2023-11-21T07:49:33;95845.94;;;7.83;87.65
31357;BME280;60001;48.404;11.738;2023-11-21T07:51:05;95826.75;;;7.83;87.40
31357;BME280;60001;48.404;11.738;2023-11-21T07:52:37;95847.34;;;7.91;88.41
31357;BME280;60001;48.404;11.738;2023-11-21T07:54:08;95840.25;;;7.91;87.45
31357;BME280;60001;48.404;11.738;2023-11-21T07:55:40;95840.94;;;8.04;86.91
31357;BME280;60001;48.404;11.738;2023-11-21T07:57:11;95848.22;;;7.96;85.40
31357;BME280;60001;48.404;11.738;2023-11-21T07:58:43;95836.47;;;8.04;86.03
31357;BME280;60001;48.404;11.738;2023-11-21T08:00:17;95843.88;;;8.07;86.15
31357;BME280;60001;48.404;11.738;2023-11-21T08:01:49;95842.06;;;8.13;85.95
31357;BME280;60001;48.404;11.738;2023-11-21T08:03:20;95840.28;;;8.18;85.76
31357;BME280;60001;48.404;11.738;2023-11-21T08:04:52;95836.78;;;8.08;86.88
31357;BME280;60001;48.404;11.738;2023-11-21T08:06:23;95833.09;;;8.09;86.64